createdAt,value
2023-05-15T00:00:12.227Z,101519.06
2023-05-15T00:02:41.322Z,101522.47
2023-05-15T00:05:18.319Z,101524.06
2023-05-15T00:07:47.099Z,101518.66
2023-05-15T00:10:15.345Z,101518.97
2023-05-15T00:12:45.214Z,101513.53
2023-05-15T00:15:13.464Z,101499.78
2023-05-15T00:17:41.849Z,101509.53
2023-05-15T00:20:12.687Z,101484.03
2023-05-15T00:22:41.228Z,101479.41
2023-05-15T00:25:10.646Z,101485.53
2023-05-15T00:27:41.063Z,101501.56
2023-05-15T00:30:12.427Z,101487.72
2023-05-15T00:32:41.137Z,101491.34
2023-05-15T00:35:10.609Z,101469.47
2023-05-15T00:37:41.283Z,101475.84
2023-05-15T00:40:19.408Z,101477.84
2023-05-15T00:42:51.739Z,101490.09
2023-05-15T00:45:23.845Z,101486.59
2023-05-15T00:47:54.525Z,101485.16
2023-05-15T00:50:24.072Z,101433.50
2023-05-15T00:52:55.411Z,101475.84
2023-05-15T00:55:24.507Z,101482.06
2023-05-15T00:57:54.935Z,101490.75
2023-05-15T01:00:25.821Z,101468.13
2023-05-15T01:02:55.530Z,101489.22
2023-05-15T01:05:24.179Z,101481.81
2023-05-15T01:07:58.956Z,101465.81
2023-05-15T01:10:28.123Z,101419.88
2023-05-15T01:12:58.760Z,101450.47
2023-05-15T01:15:29.960Z,101466.50
2023-05-15T01:17:58.967Z,101438.34
2023-05-15T01:20:29.066Z,101466.31
2023-05-15T01:23:11.637Z,101443.53
2023-05-15T01:25:54.579Z,101462.00
2023-05-15T01:28:37.927Z,101457.31
2023-05-15T01:31:12.302Z,101464.59
2023-05-15T01:36:37.569Z,101457.09
2023-05-15T01:39:07.657Z,101462.34
2023-05-15T01:41:44.041Z,101431.13
2023-05-15T01:44:18.469Z,101443.53
2023-05-15T01:46:50.299Z,101449.84
2023-05-15T01:49:22.588Z,101412.25
2023-05-15T01:51:55.919Z,101449.16
2023-05-15T01:54:24.967Z,101426.44
2023-05-15T01:56:54.897Z,101420.28
2023-05-15T01:59:28.280Z,101454.59
2023-05-15T02:02:00.918Z,101445.84
2023-05-15T02:04:30.204Z,101455.00
2023-05-15T02:06:58.762Z,101457.88
2023-05-15T02:09:30.537Z,101444.06
2023-05-15T02:14:44.915Z,101411.09
2023-05-15T02:17:13.380Z,101408.38
2023-05-15T02:19:41.789Z,101435.41
2023-05-15T02:22:10.494Z,101446.28
2023-05-15T02:24:39.023Z,101444.69
2023-05-15T02:27:15.621Z,101441.25
2023-05-15T02:30:02.901Z,101414.63
2023-05-15T02:32:36.766Z,101429.28
2023-05-15T02:35:17.890Z,101441.13
2023-05-15T02:37:49.558Z,101439.53
2023-05-15T02:40:18.759Z,101438.59
2023-05-15T02:42:49.122Z,101423.63
2023-05-15T02:45:20.647Z,101438.91
2023-05-15T02:47:51.730Z,101405.38
2023-05-15T02:50:20.897Z,101414.06
2023-05-15T02:52:50.064Z,101427.84
2023-05-15T02:55:18.968Z,101398.16
2023-05-15T02:57:47.445Z,101428.22
2023-05-15T03:00:18.200Z,101425.88
2023-05-15T03:02:48.336Z,101418.38
2023-05-15T03:05:16.817Z,101387.78
2023-05-15T03:07:45.022Z,101423.63
2023-05-15T03:10:13.311Z,101414.97
2023-05-15T03:12:42.419Z,101426.22
2023-05-15T03:15:11.727Z,101383.34
2023-05-15T03:17:40.385Z,101402.72
2023-05-15T03:20:11.655Z,101417.47
2023-05-15T03:22:42.268Z,101398.78
2023-05-15T03:25:12.269Z,101384.69
2023-05-15T03:27:40.882Z,101382.97
2023-05-15T03:30:10.702Z,101348.69
2023-05-15T03:32:42.124Z,101385.75
2023-05-15T03:35:14.861Z,101348.69
2023-05-15T03:37:43.619Z,101350.75
2023-05-15T03:40:13.481Z,101388.97
2023-05-15T03:42:41.856Z,101364.69
2023-05-15T03:45:11.353Z,101397.91
2023-05-15T03:47:40.317Z,101396.03
2023-05-15T03:50:09.204Z,101385.59
2023-05-15T03:52:40.809Z,101387.16
2023-05-15T03:55:10.962Z,101395.91
2023-05-15T03:57:40.949Z,101369.25
2023-05-15T04:00:11.245Z,101389.28
2023-05-15T04:02:43.555Z,101392.59
2023-05-15T04:05:12.771Z,101372.75
2023-05-15T04:07:45.068Z,101392.94
2023-05-15T04:10:13.776Z,101386.50
2023-05-15T04:12:42.205Z,101389.69
2023-05-15T04:15:18.197Z,101393.53
2023-05-15T04:17:50.003Z,101386.31
2023-05-15T04:20:20.583Z,101388.09
2023-05-15T04:22:50.651Z,101375.97
2023-05-15T04:25:20.432Z,101383.06
2023-05-15T04:27:49.456Z,101379.34
2023-05-15T04:30:18.540Z,101382.81
2023-05-15T04:32:47.442Z,101380.06
2023-05-15T04:35:16.521Z,101378.69
2023-05-15T04:37:47.335Z,101385.91
2023-05-15T04:40:17.095Z,101378.47
2023-05-15T04:42:46.427Z,101379.34
2023-05-15T04:45:15.312Z,101350.53
2023-05-15T04:47:44.091Z,101372.94
2023-05-15T04:50:12.550Z,101370.56
2023-05-15T04:52:41.345Z,101348.13
2023-05-15T04:55:10.888Z,101356.47
2023-05-15T04:57:40.616Z,101348.41
2023-05-15T05:00:12.784Z,101353.31
2023-05-15T05:02:41.896Z,101351.34
2023-05-15T05:05:10.576Z,101339.38
2023-05-15T05:07:38.776Z,101359.09
2023-05-15T05:10:08.904Z,101331.88
2023-05-15T05:12:37.454Z,101347.59
2023-05-15T05:15:11.509Z,101345.63
2023-05-15T05:17:40.301Z,101345.69
2023-05-15T05:20:12.952Z,101327.94
2023-05-15T05:22:42.582Z,101347.41
2023-05-15T05:25:11.323Z,101348.41
2023-05-15T05:27:39.752Z,101338.22
2023-05-15T05:30:11.018Z,101333.72
2023-05-15T05:32:45.502Z,101322.22
2023-05-15T05:35:14.106Z,101339.75
2023-05-15T05:37:42.749Z,101334.47
2023-05-15T05:40:11.875Z,101325.56
2023-05-15T05:42:40.492Z,101320.38
2023-05-15T05:45:11.527Z,101324.41
2023-05-15T05:47:43.189Z,101331.56
2023-05-15T05:50:12.007Z,101319.81
2023-05-15T05:52:40.611Z,101324.84
2023-05-15T05:55:09.668Z,101319.63
2023-05-15T05:57:38.265Z,101325.69
2023-05-15T06:00:09.580Z,101312.63
2023-05-15T06:02:40.158Z,101308.72
2023-05-15T06:05:09.276Z,101308.41
2023-05-15T06:07:37.860Z,101291.81
2023-05-15T06:10:07.664Z,101292.22
2023-05-15T06:12:36.045Z,101286.25
2023-05-15T06:15:04.379Z,101296.44
2023-05-15T06:17:32.993Z,101289.25
2023-05-15T06:20:07.559Z,101272.59
2023-05-15T06:22:35.970Z,101282.38
2023-05-15T06:25:05.285Z,101285.38
2023-05-15T06:27:33.688Z,101281.13
2023-05-15T06:30:02.336Z,101278.19
2023-05-15T06:32:34.903Z,101280.91
2023-05-15T06:35:08.412Z,101269.25
2023-05-15T06:37:37.904Z,101269.41
2023-05-15T06:40:07.086Z,101269.06
2023-05-15T06:42:36.102Z,101261.94
2023-05-15T06:45:04.748Z,101237.06
2023-05-15T06:47:36.648Z,101259.41
2023-05-15T06:50:07.021Z,101252.81
2023-05-15T06:52:35.141Z,101242.53
2023-05-15T06:55:03.583Z,101249.78
2023-05-15T06:57:31.960Z,101225.59
2023-05-15T07:00:00.367Z,101246.03
2023-05-15T07:02:29.624Z,101245.13
2023-05-15T07:04:57.815Z,101233.88
2023-05-15T07:07:27.409Z,101232.94
2023-05-15T07:09:55.617Z,101236.66
2023-05-15T07:12:23.810Z,101208.41
2023-05-15T07:14:52.724Z,101239.25
2023-05-15T07:17:21.158Z,101225.06
2023-05-15T07:19:49.443Z,101237.00
2023-05-15T07:22:17.685Z,101233.13
2023-05-15T07:24:50.902Z,101235.00
2023-05-15T07:27:19.100Z,101234.63
2023-05-15T07:29:47.303Z,101227.09
2023-05-15T07:32:19.049Z,101231.63
2023-05-15T07:34:47.184Z,101212.78
2023-05-15T07:37:16.883Z,101228.44
2023-05-15T07:39:46.996Z,101224.28
2023-05-15T07:42:19.249Z,101222.41
2023-05-15T07:44:49.481Z,101220.69
2023-05-15T07:47:18.690Z,101215.97
2023-05-15T07:49:49.397Z,101196.94
2023-05-15T07:52:18.037Z,101198.84
2023-05-15T07:54:48.112Z,101193.47
2023-05-15T07:57:18.172Z,101203.59
2023-05-15T07:59:46.720Z,101205.88
2023-05-15T08:02:14.891Z,101203.53
2023-05-15T08:04:43.466Z,101200.72
2023-05-15T08:07:11.904Z,101195.19
2023-05-15T08:09:40.114Z,101195.03
2023-05-15T08:12:22.049Z,101195.09
2023-05-15T08:14:51.153Z,101192.56
2023-05-15T08:17:22.712Z,101185.44
2023-05-15T08:19:51.145Z,101168.69
2023-05-15T08:22:22.602Z,101187.78
2023-05-15T08:24:50.841Z,101175.66
2023-05-15T08:27:20.655Z,101178.34
2023-05-15T08:29:48.922Z,101176.06
2023-05-15T08:32:17.558Z,101170.28
2023-05-15T08:34:46.025Z,101173.13
2023-05-15T08:37:14.126Z,101169.25
2023-05-15T08:39:42.633Z,101164.13
2023-05-15T08:42:20.805Z,101152.72
2023-05-15T08:44:51.746Z,101144.31
2023-05-15T08:47:23.861Z,101159.88
2023-05-15T08:50:01.838Z,101158.09
2023-05-15T08:52:30.470Z,101136.94
2023-05-15T08:55:00.461Z,101158.50
2023-05-15T08:57:31.092Z,101153.28
2023-05-15T09:00:01.682Z,101135.19
2023-05-15T09:02:32.494Z,101129.66
2023-05-15T09:05:00.804Z,101145.97
2023-05-15T09:07:33.022Z,101152.56
2023-05-15T09:10:03.398Z,101150.31
2023-05-15T09:12:35.420Z,101151.72
2023-05-15T09:15:12.771Z,101147.44
2023-05-15T09:17:43.310Z,101140.34
2023-05-15T09:20:27.875Z,101155.13
2023-05-15T09:22:56.762Z,101148.91
2023-05-15T09:25:36.001Z,101144.34
2023-05-15T09:28:04.634Z,101146.00
2023-05-15T09:30:39.415Z,101148.50
2023-05-15T09:33:08.313Z,101143.78
2023-05-15T09:35:37.872Z,101145.28
2023-05-15T09:38:10.414Z,101145.19
2023-05-15T09:40:40.862Z,101137.88
2023-05-15T09:43:11.942Z,101140.53
2023-05-15T09:45:41.895Z,101140.16
2023-05-15T09:48:12.395Z,101139.19
2023-05-15T09:50:41.119Z,101136.75
2023-05-15T09:53:14.497Z,101124.94
2023-05-15T09:55:45.726Z,101135.09
2023-05-15T09:58:15.018Z,101132.03
2023-05-15T10:00:48.214Z,101140.56
2023-05-15T10:03:19.258Z,101135.50
2023-05-15T10:05:47.987Z,101123.69
2023-05-15T10:08:16.508Z,101133.59
2023-05-15T10:10:44.832Z,101128.41
2023-05-15T10:13:15.723Z,101130.13
2023-05-15T10:15:49.990Z,101118.69
2023-05-15T10:18:23.669Z,101123.38
2023-05-15T10:20:51.965Z,101111.97
2023-05-15T10:23:21.899Z,101108.63
2023-05-15T10:25:57.151Z,101112.44
2023-05-15T10:28:26.869Z,101110.13
2023-05-15T10:31:03.182Z,101108.25
2023-05-15T10:33:32.050Z,101109.09
2023-05-15T10:36:00.877Z,101102.13
2023-05-15T10:38:31.726Z,101096.53
2023-05-15T10:41:15.798Z,101089.47
2023-05-15T10:43:48.705Z,101079.19
2023-05-15T10:46:19.059Z,101083.66
2023-05-15T10:48:47.473Z,101082.13
2023-05-15T10:51:20.090Z,101092.56
2023-05-15T10:53:51.037Z,101083.72
2023-05-15T10:56:19.792Z,101086.03
2023-05-15T10:58:49.975Z,101068.72
2023-05-15T11:01:32.508Z,101078.94
2023-05-15T11:04:11.799Z,101083.25
2023-05-15T11:06:42.645Z,101083.09
2023-05-15T11:09:36.747Z,101080.72
2023-05-15T11:12:06.881Z,101078.50
2023-05-15T11:14:39.979Z,101072.06
2023-05-15T11:17:11.001Z,101068.91
2023-05-15T11:19:59.098Z,101055.59
2023-05-15T11:22:33.695Z,101044.50
2023-05-15T11:25:06.399Z,101046.56
2023-05-15T11:27:41.491Z,101039.31
2023-05-15T11:30:15.334Z,101024.59
2023-05-15T11:32:55.602Z,101028.56
2023-05-15T11:35:25.954Z,101022.84
2023-05-15T11:37:55.802Z,101029.50
2023-05-15T11:40:27.449Z,101021.88
2023-05-15T11:43:06.863Z,101014.25
2023-05-15T11:45:36.543Z,101021.00
2023-05-15T11:48:08.541Z,101016.09
2023-05-15T11:50:37.596Z,101009.56
2023-05-15T11:53:07.815Z,101010.59
2023-05-15T11:55:37.755Z,101007.31
2023-05-15T11:58:07.407Z,101003.31
2023-05-15T12:00:35.916Z,100997.75
2023-05-15T12:03:06.060Z,101004.97
2023-05-15T12:05:34.414Z,100996.03
2023-05-15T12:08:05.175Z,101002.09
2023-05-15T12:10:45.945Z,100995.34
2023-05-15T12:13:15.655Z,100988.00
2023-05-15T12:15:46.453Z,101000.50
2023-05-15T12:18:16.058Z,100999.97
2023-05-15T12:20:47.858Z,100995.44
2023-05-15T12:23:18.040Z,100990.28
2023-05-15T12:25:48.997Z,100987.81
2023-05-15T12:28:18.605Z,100988.47
2023-05-15T12:30:47.216Z,100980.66
2023-05-15T12:33:17.001Z,100971.16
2023-05-15T12:35:52.304Z,100968.56
2023-05-15T12:38:25.192Z,100974.53
2023-05-15T12:40:54.790Z,100971.00
2023-05-15T12:43:25.959Z,100973.59
2023-05-15T12:45:58.121Z,100963.03
2023-05-15T12:48:37.452Z,100955.31
2023-05-15T12:51:07.977Z,100955.97
2023-05-15T12:53:39.317Z,100939.69
2023-05-15T12:56:09.173Z,100946.97
2023-05-15T12:58:38.543Z,100934.34
2023-05-15T13:01:06.957Z,100927.03
2023-05-15T13:03:37.672Z,100922.41
2023-05-15T13:06:08.369Z,100915.97
2023-05-15T13:08:41.924Z,100891.03
2023-05-15T13:11:14.396Z,100888.34
2023-05-15T13:13:50.292Z,100906.09
2023-05-15T13:16:22.867Z,100908.53
2023-05-15T13:18:53.092Z,100903.38
2023-05-15T13:21:21.372Z,100905.63
2023-05-15T13:23:49.885Z,100908.47
2023-05-15T13:26:18.629Z,100898.13
2023-05-15T13:28:47.032Z,100900.94
2023-05-15T13:31:15.471Z,100897.97
2023-05-15T13:33:44.145Z,100906.66
2023-05-15T13:36:13.964Z,100891.94
2023-05-15T13:38:42.279Z,100894.31
2023-05-15T13:41:11.143Z,100891.16
2023-05-15T13:43:39.568Z,100894.34
2023-05-15T13:46:07.714Z,100888.34
2023-05-15T13:48:36.296Z,100899.13
2023-05-15T13:51:04.719Z,100886.63
2023-05-15T13:53:34.562Z,100885.88
2023-05-15T13:56:04.889Z,100887.03
2023-05-15T13:58:33.568Z,100891.25
2023-05-15T14:01:04.388Z,100872.28
2023-05-15T14:03:35.965Z,100891.22
2023-05-15T14:06:04.342Z,100887.00
2023-05-15T14:08:35.581Z,100889.50
2023-05-15T14:11:05.603Z,100874.88
2023-05-15T14:13:35.158Z,100885.88
2023-05-15T14:16:03.706Z,100885.28
2023-05-15T14:18:32.220Z,100882.19
2023-05-15T14:21:03.702Z,100888.16
2023-05-15T14:23:32.242Z,100867.41
2023-05-15T14:26:00.787Z,100884.31
2023-05-15T14:28:30.608Z,100878.16
2023-05-15T14:30:58.938Z,100886.06
2023-05-15T14:33:28.264Z,100873.53
2023-05-15T14:35:57.123Z,100881.25
2023-05-15T14:38:25.538Z,100861.13
2023-05-15T14:40:53.923Z,100876.63
2023-05-15T14:43:25.231Z,100871.03
2023-05-15T14:45:55.654Z,100869.31
2023-05-15T14:48:23.776Z,100858.06
2023-05-15T14:50:53.193Z,100873.75
2023-05-15T14:53:21.828Z,100863.75
2023-05-15T14:55:52.702Z,100861.63
2023-05-15T14:58:21.514Z,100858.56
2023-05-15T15:00:49.832Z,100851.78
2023-05-15T15:03:22.134Z,100860.38
2023-05-15T15:05:51.950Z,100841.63
2023-05-15T15:08:21.213Z,100831.22
2023-05-15T15:10:52.027Z,100845.44
2023-05-15T15:13:20.611Z,100857.59
2023-05-15T15:15:49.397Z,100855.09
2023-05-15T15:18:18.804Z,100854.22
2023-05-15T15:20:49.044Z,100842.56
2023-05-15T15:23:20.836Z,100860.47
2023-05-15T15:25:49.186Z,100861.47
2023-05-15T15:28:17.734Z,100869.13
2023-05-15T15:30:46.769Z,100860.66
2023-05-15T15:33:17.926Z,100867.19
2023-05-15T15:35:46.505Z,100859.69
2023-05-15T15:38:16.400Z,100873.44
2023-05-15T15:40:45.725Z,100873.25
2023-05-15T15:43:16.617Z,100876.72
2023-05-15T15:45:44.959Z,100865.97
2023-05-15T15:48:15.698Z,100869.59
2023-05-15T15:50:43.906Z,100864.84
2023-05-15T15:53:12.330Z,100869.81
2023-05-15T15:55:42.085Z,100873.78
2023-05-15T15:58:10.264Z,100882.63
2023-05-15T16:00:38.822Z,100904.44
2023-05-15T16:03:07.389Z,100905.91
2023-05-15T16:05:38.022Z,100915.38
2023-05-15T16:08:07.204Z,100914.56
2023-05-15T16:10:41.478Z,100910.28
2023-05-15T16:13:11.940Z,100904.06
2023-05-15T16:15:40.333Z,100870.59
2023-05-15T16:18:08.496Z,100912.41
2023-05-15T16:20:36.972Z,100893.94
2023-05-15T16:23:05.760Z,100877.88
2023-05-15T16:25:35.770Z,100921.19
2023-05-15T16:28:04.112Z,100909.75
2023-05-15T16:30:47.160Z,100917.72
2023-05-15T16:33:18.195Z,100925.03
2023-05-15T16:35:46.691Z,100918.97
2023-05-15T16:38:16.348Z,100929.84
2023-05-15T16:40:44.805Z,100930.56
2023-05-15T16:43:13.104Z,100933.88
2023-05-15T16:45:44.744Z,100932.94
2023-05-15T16:48:13.268Z,100932.47
2023-05-15T16:50:41.560Z,100890.06
2023-05-15T16:53:10.204Z,100917.72
2023-05-15T16:55:40.284Z,100922.69
2023-05-15T16:58:08.968Z,100915.28
2023-05-15T17:00:37.759Z,100902.22
2023-05-15T17:03:12.708Z,100923.97
2023-05-15T17:05:41.482Z,100921.22
2023-05-15T17:08:09.815Z,100913.56
2023-05-15T17:10:40.734Z,100914.81
2023-05-15T17:13:09.111Z,100896.84
2023-05-15T17:15:51.056Z,100914.13
2023-05-15T17:18:21.557Z,100909.63
2023-05-15T17:20:52.134Z,100916.34
2023-05-15T17:23:22.375Z,100921.47
2023-05-15T17:25:54.379Z,100916.47
2023-05-15T17:28:22.480Z,100915.06
2023-05-15T17:30:51.113Z,100916.44
2023-05-15T17:33:21.697Z,100924.09
2023-05-15T17:35:49.845Z,100918.44
2023-05-15T17:38:18.497Z,100895.88
2023-05-15T17:40:46.784Z,100911.06
2023-05-15T17:43:14.969Z,100915.38
2023-05-15T17:45:43.381Z,100905.97
2023-05-15T17:48:12.418Z,100906.69
2023-05-15T17:50:43.837Z,100896.94
2023-05-15T17:53:15.676Z,100897.72
2023-05-15T17:55:44.907Z,100891.81
2023-05-15T17:58:13.565Z,100893.84
2023-05-15T18:00:45.742Z,100886.13
2023-05-15T18:03:17.285Z,100895.81
2023-05-15T18:05:48.221Z,100893.94
2023-05-15T18:08:16.659Z,100889.78
2023-05-15T18:10:49.873Z,100882.81
2023-05-15T18:13:18.869Z,100893.53
2023-05-15T18:15:57.075Z,100887.88
2023-05-15T18:18:51.606Z,100801.94
2023-05-15T18:21:22.031Z,100858.38
2023-05-15T18:23:50.339Z,100893.75
2023-05-15T18:26:18.948Z,100888.63
2023-05-15T18:28:47.680Z,100894.56
2023-05-15T18:31:16.179Z,100890.66
2023-05-15T18:33:45.276Z,100895.75
2023-05-15T18:36:13.653Z,100894.81
2023-05-15T18:38:43.529Z,100894.81
2023-05-15T18:41:12.050Z,100895.84
2023-05-15T18:43:40.549Z,100897.59
2023-05-15T18:46:08.812Z,100904.56
2023-05-15T18:48:37.000Z,100897.88
2023-05-15T18:51:05.366Z,100895.56
2023-05-15T18:53:34.391Z,100896.28
2023-05-15T18:56:04.869Z,100891.22
2023-05-15T18:58:33.950Z,100892.97
2023-05-15T19:01:04.478Z,100893.28
2023-05-15T19:03:34.249Z,100893.13
2023-05-15T19:06:03.700Z,100895.44
2023-05-15T19:08:31.913Z,100886.19
2023-05-15T19:11:01.701Z,100886.75
2023-05-15T19:13:34.451Z,100892.66
2023-05-15T19:16:04.759Z,100889.06
2023-05-15T19:18:33.472Z,100885.72
2023-05-15T19:21:02.054Z,100891.72
2023-05-15T19:23:30.829Z,100883.84
2023-05-15T19:25:59.091Z,100879.84
2023-05-15T19:28:27.306Z,100889.34
2023-05-15T19:30:59.701Z,100889.19
2023-05-15T19:33:27.827Z,100896.56
2023-05-15T19:35:56.502Z,100891.53
2023-05-15T19:38:24.808Z,100894.13
2023-05-15T19:40:53.184Z,100892.97
2023-05-15T19:43:21.610Z,100891.22
2023-05-15T19:45:49.933Z,100880.38
2023-05-15T19:48:19.590Z,100894.00
2023-05-15T19:50:48.267Z,100900.38
2023-05-15T19:53:16.703Z,100896.81
2023-05-15T19:55:45.632Z,100900.94
2023-05-15T19:58:22.116Z,100895.84
2023-05-15T20:00:52.772Z,100899.53
2023-05-15T20:03:22.945Z,100901.63
2023-05-15T20:05:52.214Z,100900.59
2023-05-15T20:08:20.349Z,100897.69
2023-05-15T20:10:52.371Z,100894.44
2023-05-15T20:13:21.401Z,100901.53
2023-05-15T20:15:55.143Z,100892.31
2023-05-15T20:18:25.085Z,100904.09
2023-05-15T20:20:53.981Z,100908.91
2023-05-15T20:23:22.437Z,100899.19
2023-05-15T20:25:52.364Z,100897.38
2023-05-15T20:28:22.082Z,100915.03
2023-05-15T20:30:51.659Z,100933.59
2023-05-15T20:33:24.356Z,100928.34
2023-05-15T20:35:54.198Z,100932.13
2023-05-15T20:38:24.550Z,100930.50
2023-05-15T20:40:53.004Z,100929.25
2023-05-15T20:43:21.379Z,100916.13
2023-05-15T20:45:49.827Z,100913.69
2023-05-15T20:48:18.740Z,100915.78
2023-05-15T20:50:48.444Z,100909.59
2023-05-15T20:53:16.600Z,100926.44
2023-05-15T20:55:45.071Z,100908.50
2023-05-15T20:58:13.510Z,100923.72
2023-05-15T21:00:42.292Z,100920.63
2023-05-15T21:03:13.615Z,100920.50
2023-05-15T21:05:42.419Z,100919.72
2023-05-15T21:08:15.107Z,100913.03
2023-05-15T21:10:43.255Z,100918.13
2023-05-15T21:13:14.209Z,100913.97
2023-05-15T21:15:43.113Z,100903.03
2023-05-15T21:18:11.972Z,100898.47
2023-05-15T21:20:41.951Z,100894.69
2023-05-15T21:23:14.876Z,100894.03
2023-05-15T21:25:44.435Z,100885.53
2023-05-15T21:28:16.197Z,100891.09
2023-05-15T21:30:44.866Z,100888.41
2023-05-15T21:33:21.361Z,100879.19
2023-05-15T21:35:49.883Z,100886.03
2023-05-15T21:38:19.964Z,100879.84
2023-05-15T21:40:48.453Z,100878.13
2023-05-15T21:43:16.614Z,100876.66
2023-05-15T21:45:45.075Z,100869.56
2023-05-15T21:48:14.304Z,100872.91
2023-05-15T21:50:42.592Z,100863.81
2023-05-15T21:53:10.734Z,100856.75
2023-05-15T21:55:40.440Z,100850.41
2023-05-15T21:58:08.705Z,100845.38
2023-05-15T22:00:37.270Z,100848.97
2023-05-15T22:03:05.706Z,100850.97
2023-05-15T22:05:34.625Z,100859.66
2023-05-15T22:08:03.305Z,100865.03
2023-05-15T22:10:32.122Z,100850.19
2023-05-15T22:13:02.957Z,100850.97
2023-05-15T22:15:34.045Z,100844.16
2023-05-15T22:18:05.671Z,100841.25
2023-05-15T22:20:34.147Z,100841.28
2023-05-15T22:23:05.477Z,100840.31
2023-05-15T22:25:33.706Z,100838.19
2023-05-15T22:28:03.498Z,100831.81
2023-05-15T22:30:31.687Z,100837.97
2023-05-15T22:33:00.309Z,100829.50
2023-05-15T22:35:28.933Z,100826.28
2023-05-15T22:37:57.620Z,100823.81
2023-05-15T22:40:26.530Z,100821.31
2023-05-15T22:42:54.815Z,100826.13
2023-05-15T22:45:24.469Z,100822.78
2023-05-15T22:47:53.235Z,100819.28
2023-05-15T22:50:21.405Z,100817.66
2023-05-15T22:52:49.543Z,100818.00
2023-05-15T22:55:17.856Z,100811.50
2023-05-15T22:57:46.469Z,100809.66
2023-05-15T23:00:15.697Z,100807.53
2023-05-15T23:02:45.402Z,100812.09
2023-05-15T23:05:13.924Z,100812.03
2023-05-15T23:07:43.135Z,100806.84
2023-05-15T23:10:11.843Z,100810.69
2023-05-15T23:12:40.753Z,100807.94
2023-05-15T23:15:11.648Z,100807.00
2023-05-15T23:17:40.591Z,100790.06
2023-05-15T23:20:12.931Z,100800.38
2023-05-15T23:22:41.170Z,100793.72
2023-05-15T23:25:10.873Z,100799.34
2023-05-15T23:27:39.972Z,100807.03
2023-05-15T23:30:09.896Z,100802.63
2023-05-15T23:32:38.554Z,100788.91
2023-05-15T23:35:07.778Z,100798.44
2023-05-15T23:37:37.640Z,100792.28
2023-05-15T23:40:06.638Z,100788.59
2023-05-15T23:42:34.979Z,100799.13
2023-05-15T23:45:03.340Z,100791.50
2023-05-15T23:47:32.038Z,100785.38
2023-05-15T23:50:01.763Z,100786.50
2023-05-15T23:52:31.044Z,100790.94
2023-05-15T23:55:01.430Z,100780.00
2023-05-15T23:57:31.327Z,100774.88
2023-05-15T23:59:59.963Z,100776.94
